Akron, Pennsylvania
Current Conditions -  °F | °C
As of 9:05 PM on Sunday 25 Jan 2015 (Local Time) from KLNS Reporting Station
Light Rain Light Rain  
Wind Chill: 27°   Ceiling: 1100
Heat Index: 34°   Visibility: 4mi
Dew Point: 32°   Wind: 9mph
Humidity: 92%   Direction: 50°NE
Pressure: 29.9"   Gusts: NA
Location:  40.16°N, 76.2°W
Report Text: KLNS 260205Z 05008KT 4SM -RA BR BKN011 OVC028 01/00 A2990 RMK AO2 P0000 T00110000
Loading
Personal Weather Stations






























Interactive Weather Map New forecast layout! Learn more

10-Day Weather Forecast

Advertisements
Track Severe Weather on mobile